South Newport, Georgia
Current Conditions -  °F | °C
As of 4:58 AM on Thursday 23 Oct 2014 (Local Time) from KLHW Reporting Station
Clear Clear  
Wind Chill: 44°   Ceiling: Unl
Heat Index: 46°   Visibility: 10mi
Dew Point: 42°   Wind: 5mph
Humidity: 88%   Direction: 30°NNE
Pressure: 30.05"   Gusts: NA
Location:  31.7217°N, 81.4475°W
Report Text: KLHW 230858Z AUTO 03004KT 10SM CLR 08/06 A3005 RMK AO2 SLP179 T00770058 50000
Loading
Personal Weather Stations






























Interactive Weather Map
Tropical Storm Tracking
New forecast layout! Learn more

10-Day Weather Forecast

Advertisements
Track Severe Weather on mobile